sensor_id;sensor_type;location;lat;lon;timestamp;P1;durP1;ratioP1;P2;durP2;ratioP2
16792;SDS011;8513;42.662;23.350;2022-11-23T00:01:30;20.40;;;15.63;;
16792;SDS011;8513;42.662;23.350;2022-11-23T00:03:59;16.07;;;13.80;;
16792;SDS011;8513;42.662;23.350;2022-11-23T00:06:27;15.43;;;13.63;;
16792;SDS011;8513;42.662;23.350;2022-11-23T00:08:53;13.93;;;12.50;;
16792;SDS011;8513;42.662;23.350;2022-11-23T00:11:19;14.37;;;13.03;;
16792;SDS011;8513;42.662;23.350;2022-11-23T00:13:46;13.27;;;11.87;;
16792;SDS011;8513;42.662;23.350;2022-11-23T00:16:12;12.50;;;10.53;;
16792;SDS011;8513;42.662;23.350;2022-11-23T00:18:40;12.60;;;10.83;;
16792;SDS011;8513;42.662;23.350;2022-11-23T00:21:06;13.80;;;11.33;;
16792;SDS011;8513;42.662;23.350;2022-11-23T00:23:36;11.53;;;10.30;;
16792;SDS011;8513;42.662;23.350;2022-11-23T00:26:02;12.37;;;10.60;;
16792;SDS011;8513;42.662;23.350;2022-11-23T00:28:28;12.10;;;10.20;;
16792;SDS011;8513;42.662;23.350;2022-11-23T00:30:54;11.43;;;10.33;;
16792;SDS011;8513;42.662;23.350;2022-11-23T00:33:19;13.17;;;11.40;;
16792;SDS011;8513;42.662;23.350;2022-11-23T00:35:45;12.40;;;10.97;;
16792;SDS011;8513;42.662;23.350;2022-11-23T00:38:10;11.80;;;10.07;;
16792;SDS011;8513;42.662;23.350;2022-11-23T00:40:36;10.80;;;9.73;;
16792;SDS011;8513;42.662;23.350;2022-11-23T00:43:01;10.60;;;9.50;;
16792;SDS011;8513;42.662;23.350;2022-11-23T00:45:27;11.50;;;10.30;;
16792;SDS011;8513;42.662;23.350;2022-11-23T00:47:52;11.43;;;9.83;;
16792;SDS011;8513;42.662;23.350;2022-11-23T00:50:17;11.33;;;9.87;;
16792;SDS011;8513;42.662;23.350;2022-11-23T00:52:43;10.93;;;9.83;;
16792;SDS011;8513;42.662;23.350;2022-11-23T00:55:08;10.57;;;9.23;;
16792;SDS011;8513;42.662;23.350;2022-11-23T00:57:34;13.43;;;10.03;;
16792;SDS011;8513;42.662;23.350;2022-11-23T00:59:59;11.07;;;9.80;;
16792;SDS011;8513;42.662;23.350;2022-11-23T01:02:25;11.70;;;10.57;;
16792;SDS011;8513;42.662;23.350;2022-11-23T01:04:50;11.53;;;10.33;;
16792;SDS011;8513;42.662;23.350;2022-11-23T01:07:16;10.57;;;9.53;;
16792;SDS011;8513;42.662;23.350;2022-11-23T01:09:41;11.50;;;10.23;;
16792;SDS011;8513;42.662;23.350;2022-11-23T01:12:07;10.97;;;9.87;;
16792;SDS011;8513;42.662;23.350;2022-11-23T01:14:33;11.17;;;10.00;;
16792;SDS011;8513;42.662;23.350;2022-11-23T01:16:58;11.50;;;10.30;;
16792;SDS011;8513;42.662;23.350;2022-11-23T01:19:23;10.33;;;9.23;;
16792;SDS011;8513;42.662;23.350;2022-11-23T01:21:49;11.00;;;9.80;;
16792;SDS011;8513;42.662;23.350;2022-11-23T01:24:19;11.23;;;9.53;;
16792;SDS011;8513;42.662;23.350;2022-11-23T01:26:53;11.87;;;10.67;;
16792;SDS011;8513;42.662;23.350;2022-11-23T01:29:19;12.50;;;11.10;;
16792;SDS011;8513;42.662;23.350;2022-11-23T01:31:46;11.87;;;10.67;;
16792;SDS011;8513;42.662;23.350;2022-11-23T01:34:11;11.90;;;10.63;;
16792;SDS011;8513;42.662;23.350;2022-11-23T01:36:38;12.37;;;11.13;;
16792;SDS011;8513;42.662;23.350;2022-11-23T01:39:04;12.33;;;11.10;;
16792;SDS011;8513;42.662;23.350;2022-11-23T01:41:34;11.87;;;10.67;;
16792;SDS011;8513;42.662;23.350;2022-11-23T01:46:49;12.07;;;10.10;;
16792;SDS011;8513;42.662;23.350;2022-11-23T01:49:14;11.67;;;10.47;;
16792;SDS011;8513;42.662;23.350;2022-11-23T01:51:40;12.70;;;11.40;;
16792;SDS011;8513;42.662;23.350;2022-11-23T01:56:39;12.40;;;11.10;;
16792;SDS011;8513;42.662;23.350;2022-11-23T01:59:09;11.30;;;10.20;;
16792;SDS011;8513;42.662;23.350;2022-11-23T02:01:39;11.97;;;10.77;;
16792;SDS011;8513;42.662;23.350;2022-11-23T02:04:05;11.60;;;10.50;;
16792;SDS011;8513;42.662;23.350;2022-11-23T02:06:33;12.27;;;10.97;;
16792;SDS011;8513;42.662;23.350;2022-11-23T02:08:59;11.73;;;10.63;;
16792;SDS011;8513;42.662;23.350;2022-11-23T02:11:24;11.67;;;10.47;;
16792;SDS011;8513;42.662;23.350;2022-11-23T02:13:50;11.03;;;9.93;;
16792;SDS011;8513;42.662;23.350;2022-11-23T02:16:16;11.73;;;10.37;;
16792;SDS011;8513;42.662;23.350;2022-11-23T02:18:43;10.70;;;9.70;;
16792;SDS011;8513;42.662;23.350;2022-11-23T02:21:11;10.23;;;9.23;;
16792;SDS011;8513;42.662;23.350;2022-11-23T02:23:49;10.23;;;9.30;;
16792;SDS011;8513;42.662;23.350;2022-11-23T02:26:39;10.00;;;8.77;;
16792;SDS011;8513;42.662;23.350;2022-11-23T02:29:13;10.47;;;9.57;;
16792;SDS011;8513;42.662;23.350;2022-11-23T02:31:46;10.40;;;9.27;;
16792;SDS011;8513;42.662;23.350;2022-11-23T02:34:11;9.60;;;8.70;;
16792;SDS011;8513;42.662;23.350;2022-11-23T02:36:40;11.00;;;9.60;;
16792;SDS011;8513;42.662;23.350;2022-11-23T02:39:16;11.47;;;10.37;;
16792;SDS011;8513;42.662;23.350;2022-11-23T02:41:47;11.90;;;10.80;;
16792;SDS011;8513;42.662;23.350;2022-11-23T02:44:20;13.50;;;12.17;;
16792;SDS011;8513;42.662;23.350;2022-11-23T02:46:53;12.93;;;11.63;;
16792;SDS011;8513;42.662;23.350;2022-11-23T02:49:19;13.47;;;12.07;;
16792;SDS011;8513;42.662;23.350;2022-11-23T02:51:44;14.23;;;12.30;;
16792;SDS011;8513;42.662;23.350;2022-11-23T02:54:10;14.17;;;12.73;;
16792;SDS011;8513;42.662;23.350;2022-11-23T02:56:35;13.00;;;11.77;;
16792;SDS011;8513;42.662;23.350;2022-11-23T02:59:01;13.03;;;11.83;;
16792;SDS011;8513;42.662;23.350;2022-11-23T03:01:26;12.90;;;11.50;;
16792;SDS011;8513;42.662;23.350;2022-11-23T03:03:52;14.50;;;13.00;;
16792;SDS011;8513;42.662;23.350;2022-11-23T03:06:18;13.90;;;12.60;;
16792;SDS011;8513;42.662;23.350;2022-11-23T03:08:43;13.90;;;12.50;;
16792;SDS011;8513;42.662;23.350;2022-11-23T03:11:08;13.93;;;12.53;;
16792;SDS011;8513;42.662;23.350;2022-11-23T03:13:34;14.33;;;12.83;;
16792;SDS011;8513;42.662;23.350;2022-11-23T03:15:59;13.27;;;11.97;;
16792;SDS011;8513;42.662;23.350;2022-11-23T03:18:25;13.43;;;12.03;;
16792;SDS011;8513;42.662;23.350;2022-11-23T03:20:50;13.90;;;12.50;;
16792;SDS011;8513;42.662;23.350;2022-11-23T03:23:16;14.07;;;12.70;;
16792;SDS011;8513;42.662;23.350;2022-11-23T03:25:41;11.77;;;10.67;;
16792;SDS011;8513;42.662;23.350;2022-11-23T03:28:06;11.97;;;10.80;;
16792;SDS011;8513;42.662;23.350;2022-11-23T03:30:32;12.63;;;11.40;;
16792;SDS011;8513;42.662;23.350;2022-11-23T03:32:58;12.43;;;11.20;;
16792;SDS011;8513;42.662;23.350;2022-11-23T03:35:23;12.13;;;10.87;;
16792;SDS011;8513;42.662;23.350;2022-11-23T03:37:48;12.17;;;11.00;;
16792;SDS011;8513;42.662;23.350;2022-11-23T03:40:14;11.97;;;10.80;;
16792;SDS011;8513;42.662;23.350;2022-11-23T03:42:39;12.23;;;10.93;;
16792;SDS011;8513;42.662;23.350;2022-11-23T03:45:05;12.43;;;11.23;;
16792;SDS011;8513;42.662;23.350;2022-11-23T03:47:31;11.83;;;10.60;;
16792;SDS011;8513;42.662;23.350;2022-11-23T03:49:57;11.43;;;10.27;;
16792;SDS011;8513;42.662;23.350;2022-11-23T03:52:22;11.90;;;10.73;;
16792;SDS011;8513;42.662;23.350;2022-11-23T03:54:48;11.27;;;10.17;;
16792;SDS011;8513;42.662;23.350;2022-11-23T03:57:13;11.53;;;10.43;;
16792;SDS011;8513;42.662;23.350;2022-11-23T03:59:39;11.03;;;9.93;;
16792;SDS011;8513;42.662;23.350;2022-11-23T04:02:04;11.77;;;10.67;;
16792;SDS011;8513;42.662;23.350;2022-11-23T04:04:31;11.47;;;10.27;;
16792;SDS011;8513;42.662;23.350;2022-11-23T04:06:57;11.20;;;10.10;;
16792;SDS011;8513;42.662;23.350;2022-11-23T04:09:22;11.37;;;10.10;;
16792;SDS011;8513;42.662;23.350;2022-11-23T04:11:48;12.97;;;10.63;;
16792;SDS011;8513;42.662;23.350;2022-11-23T04:14:13;11.53;;;10.43;;
16792;SDS011;8513;42.662;23.350;2022-11-23T04:16:39;11.80;;;10.57;;
16792;SDS011;8513;42.662;23.350;2022-11-23T04:19:04;11.70;;;10.60;;
16792;SDS011;8513;42.662;23.350;2022-11-23T04:21:29;12.67;;;11.37;;
16792;SDS011;8513;42.662;23.350;2022-11-23T04:23:55;11.50;;;10.40;;
16792;SDS011;8513;42.662;23.350;2022-11-23T04:26:20;11.93;;;10.73;;
16792;SDS011;8513;42.662;23.350;2022-11-23T04:28:46;12.10;;;10.90;;
16792;SDS011;8513;42.662;23.350;2022-11-23T04:31:11;11.70;;;10.60;;
16792;SDS011;8513;42.662;23.350;2022-11-23T04:33:36;11.63;;;10.53;;
16792;SDS011;8513;42.662;23.350;2022-11-23T04:36:02;12.27;;;10.53;;
16792;SDS011;8513;42.662;23.350;2022-11-23T04:38:27;12.73;;;11.47;;
16792;SDS011;8513;42.662;23.350;2022-11-23T04:40:53;13.53;;;12.13;;
16792;SDS011;8513;42.662;23.350;2022-11-23T04:43:18;13.73;;;12.43;;
16792;SDS011;8513;42.662;23.350;2022-11-23T04:45:44;14.00;;;12.60;;
16792;SDS011;8513;42.662;23.350;2022-11-23T04:48:09;13.03;;;11.80;;
16792;SDS011;8513;42.662;23.350;2022-11-23T04:50:35;12.90;;;11.70;;
16792;SDS011;8513;42.662;23.350;2022-11-23T04:53:01;14.23;;;12.77;;
16792;SDS011;8513;42.662;23.350;2022-11-23T04:55:27;14.23;;;12.70;;
16792;SDS011;8513;42.662;23.350;2022-11-23T04:57:52;15.73;;;14.20;;
16792;SDS011;8513;42.662;23.350;2022-11-23T05:00:18;13.63;;;12.33;;
16792;SDS011;8513;42.662;23.350;2022-11-23T05:02:43;14.07;;;12.67;;
16792;SDS011;8513;42.662;23.350;2022-11-23T05:05:09;14.20;;;12.20;;
16792;SDS011;8513;42.662;23.350;2022-11-23T05:07:34;14.30;;;12.93;;
16792;SDS011;8513;42.662;23.350;2022-11-23T05:10:00;14.73;;;13.23;;
16792;SDS011;8513;42.662;23.350;2022-11-23T05:12:25;15.30;;;13.80;;
16792;SDS011;8513;42.662;23.350;2022-11-23T05:14:51;16.37;;;14.87;;
16792;SDS011;8513;42.662;23.350;2022-11-23T05:17:16;16.53;;;14.93;;
16792;SDS011;8513;42.662;23.350;2022-11-23T05:19:41;16.63;;;15.03;;
16792;SDS011;8513;42.662;23.350;2022-11-23T05:22:07;15.87;;;14.27;;
16792;SDS011;8513;42.662;23.350;2022-11-23T05:24:32;16.83;;;15.17;;
16792;SDS011;8513;42.662;23.350;2022-11-23T05:26:58;16.83;;;15.17;;
16792;SDS011;8513;42.662;23.350;2022-11-23T05:29:23;15.90;;;14.37;;
16792;SDS011;8513;42.662;23.350;2022-11-23T05:31:48;16.83;;;15.17;;
16792;SDS011;8513;42.662;23.350;2022-11-23T05:34:14;16.87;;;15.17;;
16792;SDS011;8513;42.662;23.350;2022-11-23T05:36:40;16.07;;;14.47;;
16792;SDS011;8513;42.662;23.350;2022-11-23T05:39:05;18.67;;;15.93;;
16792;SDS011;8513;42.662;23.350;2022-11-23T05:41:31;16.30;;;14.53;;
16792;SDS011;8513;42.662;23.350;2022-11-23T05:43:57;17.67;;;15.87;;
16792;SDS011;8513;42.662;23.350;2022-11-23T05:46:22;17.57;;;15.90;;
16792;SDS011;8513;42.662;23.350;2022-11-23T05:48:47;18.20;;;16.57;;
16792;SDS011;8513;42.662;23.350;2022-11-23T05:51:13;18.73;;;16.93;;
16792;SDS011;8513;42.662;23.350;2022-11-23T05:53:38;19.10;;;17.30;;
16792;SDS011;8513;42.662;23.350;2022-11-23T05:56:04;17.87;;;16.17;;
16792;SDS011;8513;42.662;23.350;2022-11-23T05:58:29;19.77;;;17.77;;
16792;SDS011;8513;42.662;23.350;2022-11-23T06:00:58;20.77;;;18.83;;
16792;SDS011;8513;42.662;23.350;2022-11-23T06:03:25;23.00;;;19.60;;
16792;SDS011;8513;42.662;23.350;2022-11-23T06:05:51;22.13;;;19.93;;
16792;SDS011;8513;42.662;23.350;2022-11-23T06:08:16;21.70;;;19.70;;
16792;SDS011;8513;42.662;23.350;2022-11-23T06:10:42;21.83;;;19.73;;
16792;SDS011;8513;42.662;23.350;2022-11-23T06:13:07;21.37;;;19.27;;
16792;SDS011;8513;42.662;23.350;2022-11-23T06:15:33;21.93;;;19.70;;
16792;SDS011;8513;42.662;23.350;2022-11-23T06:17:59;21.87;;;19.87;;
16792;SDS011;8513;42.662;23.350;2022-11-23T06:20:25;20.77;;;18.77;;
16792;SDS011;8513;42.662;23.350;2022-11-23T06:22:52;22.73;;;19.77;;
16792;SDS011;8513;42.662;23.350;2022-11-23T06:25:18;21.20;;;18.93;;
16792;SDS011;8513;42.662;23.350;2022-11-23T06:30:24;23.43;;;21.13;;
16792;SDS011;8513;42.662;23.350;2022-11-23T06:32:51;21.63;;;19.63;;
16792;SDS011;8513;42.662;23.350;2022-11-23T06:35:17;20.87;;;18.87;;
16792;SDS011;8513;42.662;23.350;2022-11-23T06:37:42;21.63;;;19.50;;
16792;SDS011;8513;42.662;23.350;2022-11-23T06:40:09;19.53;;;17.77;;
16792;SDS011;8513;42.662;23.350;2022-11-23T06:42:35;19.90;;;17.90;;
16792;SDS011;8513;42.662;23.350;2022-11-23T06:45:01;20.60;;;18.53;;
16792;SDS011;8513;42.662;23.350;2022-11-23T06:47:27;19.70;;;17.80;;
16792;SDS011;8513;42.662;23.350;2022-11-23T06:49:52;20.37;;;18.47;;
16792;SDS011;8513;42.662;23.350;2022-11-23T06:52:18;21.77;;;19.63;;
16792;SDS011;8513;42.662;23.350;2022-11-23T06:54:43;19.20;;;17.40;;
16792;SDS011;8513;42.662;23.350;2022-11-23T06:57:10;18.47;;;16.67;;
16792;SDS011;8513;42.662;23.350;2022-11-23T06:59:35;18.97;;;17.13;;
16792;SDS011;8513;42.662;23.350;2022-11-23T07:02:01;19.80;;;17.90;;
16792;SDS011;8513;42.662;23.350;2022-11-23T07:04:26;20.70;;;18.80;;
16792;SDS011;8513;42.662;23.350;2022-11-23T07:06:52;20.57;;;18.77;;
16792;SDS011;8513;42.662;23.350;2022-11-23T07:09:17;20.13;;;18.23;;
16792;SDS011;8513;42.662;23.350;2022-11-23T07:11:44;19.73;;;17.83;;
16792;SDS011;8513;42.662;23.350;2022-11-23T07:14:09;20.87;;;18.77;;
16792;SDS011;8513;42.662;23.350;2022-11-23T07:16:35;19.73;;;17.83;;
16792;SDS011;8513;42.662;23.350;2022-11-23T07:19:01;20.37;;;18.53;;
16792;SDS011;8513;42.662;23.350;2022-11-23T07:21:26;20.93;;;18.93;;
16792;SDS011;8513;42.662;23.350;2022-11-23T07:23:52;19.50;;;17.60;;
16792;SDS011;8513;42.662;23.350;2022-11-23T07:26:17;20.87;;;18.97;;
16792;SDS011;8513;42.662;23.350;2022-11-23T07:28:43;19.30;;;17.60;;
16792;SDS011;8513;42.662;23.350;2022-11-23T07:31:08;19.50;;;17.60;;
16792;SDS011;8513;42.662;23.350;2022-11-23T07:33:34;23.23;;;20.77;;
16792;SDS011;8513;42.662;23.350;2022-11-23T07:36:00;21.57;;;19.47;;
16792;SDS011;8513;42.662;23.350;2022-11-23T07:38:26;22.13;;;20.00;;
16792;SDS011;8513;42.662;23.350;2022-11-23T07:40:52;24.23;;;21.93;;
16792;SDS011;8513;42.662;23.350;2022-11-23T07:43:17;22.63;;;20.43;;
16792;SDS011;8513;42.662;23.350;2022-11-23T07:45:43;22.53;;;20.43;;
16792;SDS011;8513;42.662;23.350;2022-11-23T07:48:09;22.03;;;20.03;;
16792;SDS011;8513;42.662;23.350;2022-11-23T07:50:35;21.50;;;19.47;;
16792;SDS011;8513;42.662;23.350;2022-11-23T07:53:02;23.53;;;21.13;;
16792;SDS011;8513;42.662;23.350;2022-11-23T07:55:28;22.53;;;20.43;;
16792;SDS011;8513;42.662;23.350;2022-11-23T07:57:54;24.10;;;21.83;;
16792;SDS011;8513;42.662;23.350;2022-11-23T08:00:20;22.70;;;20.50;;
16792;SDS011;8513;42.662;23.350;2022-11-23T08:02:47;23.60;;;21.43;;
16792;SDS011;8513;42.662;23.350;2022-11-23T08:05:13;22.67;;;20.53;;
16792;SDS011;8513;42.662;23.350;2022-11-23T08:07:38;23.57;;;21.40;;
16792;SDS011;8513;42.662;23.350;2022-11-23T08:10:04;22.10;;;20.10;;
16792;SDS011;8513;42.662;23.350;2022-11-23T08:12:30;21.87;;;19.77;;
16792;SDS011;8513;42.662;23.350;2022-11-23T08:14:55;22.47;;;20.37;;
16792;SDS011;8513;42.662;23.350;2022-11-23T08:17:21;20.97;;;19.07;;
16792;SDS011;8513;42.662;23.350;2022-11-23T08:19:46;20.17;;;18.37;;
16792;SDS011;8513;42.662;23.350;2022-11-23T08:22:13;19.07;;;16.57;;
16792;SDS011;8513;42.662;23.350;2022-11-23T08:24:38;17.73;;;16.10;;
16792;SDS011;8513;42.662;23.350;2022-11-23T08:27:03;19.17;;;17.37;;
16792;SDS011;8513;42.662;23.350;2022-11-23T08:29:29;19.03;;;17.23;;
16792;SDS011;8513;42.662;23.350;2022-11-23T08:31:55;20.07;;;18.37;;
16792;SDS011;8513;42.662;23.350;2022-11-23T08:34:20;21.03;;;19.03;;
16792;SDS011;8513;42.662;23.350;2022-11-23T08:36:45;21.10;;;19.20;;
16792;SDS011;8513;42.662;23.350;2022-11-23T08:39:12;22.03;;;20.13;;
16792;SDS011;8513;42.662;23.350;2022-11-23T08:41:39;22.43;;;20.23;;
16792;SDS011;8513;42.662;23.350;2022-11-23T08:44:05;22.97;;;21.03;;
16792;SDS011;8513;42.662;23.350;2022-11-23T08:46:33;23.43;;;21.27;;
16792;SDS011;8513;42.662;23.350;2022-11-23T08:48:59;26.47;;;24.00;;
16792;SDS011;8513;42.662;23.350;2022-11-23T08:51:24;27.83;;;25.20;;
16792;SDS011;8513;42.662;23.350;2022-11-23T08:53:50;24.50;;;22.30;;
16792;SDS011;8513;42.662;23.350;2022-11-23T08:56:16;22.43;;;20.33;;
16792;SDS011;8513;42.662;23.350;2022-11-23T08:58:42;21.57;;;19.57;;
16792;SDS011;8513;42.662;23.350;2022-11-23T09:01:12;20.70;;;18.90;;
16792;SDS011;8513;42.662;23.350;2022-11-23T09:03:38;23.63;;;21.53;;
16792;SDS011;8513;42.662;23.350;2022-11-23T09:06:04;22.90;;;20.77;;
16792;SDS011;8513;42.662;23.350;2022-11-23T09:08:30;20.87;;;18.97;;
16792;SDS011;8513;42.662;23.350;2022-11-23T09:10:59;23.47;;;21.33;;
16792;SDS011;8513;42.662;23.350;2022-11-23T09:13:25;21.27;;;19.00;;
16792;SDS011;8513;42.662;23.350;2022-11-23T09:15:50;17.20;;;15.60;;
16792;SDS011;8513;42.662;23.350;2022-11-23T09:18:16;17.40;;;15.70;;
16792;SDS011;8513;42.662;23.350;2022-11-23T09:20:41;15.53;;;14.03;;
16792;SDS011;8513;42.662;23.350;2022-11-23T09:23:07;15.53;;;14.17;;
16792;SDS011;8513;42.662;23.350;2022-11-23T09:25:33;15.90;;;14.40;;
16792;SDS011;8513;42.662;23.350;2022-11-23T09:27:59;14.70;;;12.53;;
16792;SDS011;8513;42.662;23.350;2022-11-23T09:30:25;14.47;;;12.97;;
16792;SDS011;8513;42.662;23.350;2022-11-23T09:32:51;12.80;;;11.50;;
16792;SDS011;8513;42.662;23.350;2022-11-23T09:35:16;16.03;;;13.63;;
16792;SDS011;8513;42.662;23.350;2022-11-23T09:37:42;15.07;;;13.77;;
16792;SDS011;8513;42.662;23.350;2022-11-23T09:40:08;14.77;;;13.47;;
16792;SDS011;8513;42.662;23.350;2022-11-23T09:48:14;20.40;;;18.40;;
16792;SDS011;8513;42.662;23.350;2022-11-23T09:50:50;16.97;;;15.27;;
16792;SDS011;8513;42.662;23.350;2022-11-23T09:53:34;17.47;;;15.77;;
16792;SDS011;8513;42.662;23.350;2022-11-23T09:56:04;18.37;;;16.57;;
16792;SDS011;8513;42.662;23.350;2022-11-23T09:58:38;18.03;;;16.33;;
16792;SDS011;8513;42.662;23.350;2022-11-23T10:01:11;21.57;;;17.70;;
16792;SDS011;8513;42.662;23.350;2022-11-23T10:03:40;20.07;;;18.07;;
16792;SDS011;8513;42.662;23.350;2022-11-23T10:06:17;16.33;;;14.73;;
16792;SDS011;8513;42.662;23.350;2022-11-23T10:08:52;14.93;;;13.43;;
16792;SDS011;8513;42.662;23.350;2022-11-23T10:20:33;12.47;;;11.17;;
16792;SDS011;8513;42.662;23.350;2022-11-23T10:23:16;11.93;;;10.83;;
16792;SDS011;8513;42.662;23.350;2022-11-23T10:25:54;13.20;;;10.10;;
16792;SDS011;8513;42.662;23.350;2022-11-23T10:28:21;11.20;;;9.97;;
16792;SDS011;8513;42.662;23.350;2022-11-23T10:30:54;11.37;;;10.27;;
16792;SDS011;8513;42.662;23.350;2022-11-23T10:36:24;9.13;;;8.23;;
16792;SDS011;8513;42.662;23.350;2022-11-23T10:38:52;8.73;;;7.93;;
16792;SDS011;8513;42.662;23.350;2022-11-23T10:41:21;9.10;;;8.30;;
16792;SDS011;8513;42.662;23.350;2022-11-23T10:48:53;8.83;;;8.03;;
16792;SDS011;8513;42.662;23.350;2022-11-23T10:51:25;8.87;;;8.03;;
16792;SDS011;8513;42.662;23.350;2022-11-23T10:53:59;8.83;;;8.03;;
16792;SDS011;8513;42.662;23.350;2022-11-23T10:56:26;10.77;;;8.90;;
16792;SDS011;8513;42.662;23.350;2022-11-23T10:58:53;9.97;;;8.97;;
16792;SDS011;8513;42.662;23.350;2022-11-23T11:01:24;10.30;;;8.40;;
16792;SDS011;8513;42.662;23.350;2022-11-23T11:03:51;10.77;;;8.57;;
16792;SDS011;8513;42.662;23.350;2022-11-23T11:06:28;9.40;;;8.37;;
16792;SDS011;8513;42.662;23.350;2022-11-23T11:09:05;9.93;;;7.43;;
16792;SDS011;8513;42.662;23.350;2022-11-23T11:11:44;10.57;;;9.07;;
16792;SDS011;8513;42.662;23.350;2022-11-23T11:16:50;11.97;;;9.03;;
16792;SDS011;8513;42.662;23.350;2022-11-23T11:21:58;11.75;;;8.93;;
16792;SDS011;8513;42.662;23.350;2022-11-23T11:27:19;8.87;;;7.20;;
16792;SDS011;8513;42.662;23.350;2022-11-23T11:29:47;6.60;;;5.43;;
16792;SDS011;8513;42.662;23.350;2022-11-23T11:32:16;5.60;;;4.67;;
16792;SDS011;8513;42.662;23.350;2022-11-23T11:34:51;5.35;;;4.43;;
16792;SDS011;8513;42.662;23.350;2022-11-23T11:42:42;6.57;;;4.78;;
16792;SDS011;8513;42.662;23.350;2022-11-23T11:45:24;6.10;;;5.13;;
16792;SDS011;8513;42.662;23.350;2022-11-23T11:47:55;5.38;;;4.05;;
16792;SDS011;8513;42.662;23.350;2022-11-23T11:50:32;4.20;;;3.10;;
16792;SDS011;8513;42.662;23.350;2022-11-23T11:53:04;4.20;;;3.80;;
16792;SDS011;8513;42.662;23.350;2022-11-23T11:55:47;7.03;;;3.20;;
16792;SDS011;8513;42.662;23.350;2022-11-23T11:58:22;6.97;;;4.43;;
16792;SDS011;8513;42.662;23.350;2022-11-23T12:00:50;4.40;;;2.60;;
16792;SDS011;8513;42.662;23.350;2022-11-23T12:06:17;5.68;;;2.58;;
16792;SDS011;8513;42.662;23.350;2022-11-23T12:08:49;3.50;;;2.60;;
16792;SDS011;8513;42.662;23.350;2022-11-23T12:11:23;4.63;;;2.70;;
16792;SDS011;8513;42.662;23.350;2022-11-23T12:13:49;6.50;;;2.63;;
16792;SDS011;8513;42.662;23.350;2022-11-23T12:27:32;3.58;;;1.77;;
16792;SDS011;8513;42.662;23.350;2022-11-23T12:30:22;2.17;;;1.25;;
16792;SDS011;8513;42.662;23.350;2022-11-23T13:00:18;3.05;;;1.20;;
16792;SDS011;8513;42.662;23.350;2022-11-23T13:22:15;9.40;;;2.90;;
16792;SDS011;8513;42.662;23.350;2022-11-23T13:25:13;3.20;;;1.45;;
16792;SDS011;8513;42.662;23.350;2022-11-23T13:32:53;5.70;;;3.03;;
16792;SDS011;8513;42.662;23.350;2022-11-23T13:40:27;3.53;;;1.40;;
16792;SDS011;8513;42.662;23.350;2022-11-23T13:42:58;3.88;;;1.35;;
16792;SDS011;8513;42.662;23.350;2022-11-23T13:45:32;3.45;;;1.27;;
16792;SDS011;8513;42.662;23.350;2022-11-23T13:50:35;3.90;;;1.30;;
16792;SDS011;8513;42.662;23.350;2022-11-23T13:53:04;4.20;;;1.60;;
16792;SDS011;8513;42.662;23.350;2022-11-23T13:55:43;8.73;;;1.73;;
16792;SDS011;8513;42.662;23.350;2022-11-23T14:00:57;3.92;;;2.10;;
16792;SDS011;8513;42.662;23.350;2022-11-23T14:09:04;4.28;;;1.45;;
16792;SDS011;8513;42.662;23.350;2022-11-23T14:12:00;7.68;;;2.03;;
16792;SDS011;8513;42.662;23.350;2022-11-23T14:20:21;2.08;;;1.30;;
16792;SDS011;8513;42.662;23.350;2022-11-23T14:31:10;6.57;;;2.15;;
16792;SDS011;8513;42.662;23.350;2022-11-23T14:36:45;4.57;;;2.10;;
16792;SDS011;8513;42.662;23.350;2022-11-23T14:42:13;10.10;;;2.90;;
16792;SDS011;8513;42.662;23.350;2022-11-23T14:44:41;19.48;;;4.15;;
16792;SDS011;8513;42.662;23.350;2022-11-23T14:47:09;9.07;;;2.85;;
16792;SDS011;8513;42.662;23.350;2022-11-23T14:49:35;5.38;;;2.22;;
16792;SDS011;8513;42.662;23.350;2022-11-23T14:52:02;8.63;;;2.65;;
16792;SDS011;8513;42.662;23.350;2022-11-23T14:54:29;8.70;;;2.58;;
16792;SDS011;8513;42.662;23.350;2022-11-23T14:56:56;6.03;;;2.47;;
16792;SDS011;8513;42.662;23.350;2022-11-23T14:59:35;10.83;;;3.73;;
16792;SDS011;8513;42.662;23.350;2022-11-23T15:07:24;11.85;;;4.38;;
16792;SDS011;8513;42.662;23.350;2022-11-23T15:12:55;9.88;;;4.30;;
16792;SDS011;8513;42.662;23.350;2022-11-23T15:15:25;12.80;;;3.63;;
16792;SDS011;8513;42.662;23.350;2022-11-23T15:18:01;10.00;;;2.40;;
16792;SDS011;8513;42.662;23.350;2022-11-23T15:20:28;14.93;;;7.90;;
16792;SDS011;8513;42.662;23.350;2022-11-23T15:22:58;26.17;;;8.45;;
16792;SDS011;8513;42.662;23.350;2022-11-23T15:25:25;16.60;;;5.15;;
16792;SDS011;8513;42.662;23.350;2022-11-23T15:27:51;8.43;;;3.45;;
16792;SDS011;8513;42.662;23.350;2022-11-23T15:30:21;4.28;;;2.20;;
16792;SDS011;8513;42.662;23.350;2022-11-23T15:32:59;7.15;;;2.63;;
16792;SDS011;8513;42.662;23.350;2022-11-23T15:35:33;9.23;;;2.87;;
16792;SDS011;8513;42.662;23.350;2022-11-23T15:38:01;8.90;;;3.17;;
16792;SDS011;8513;42.662;23.350;2022-11-23T15:40:31;5.77;;;2.70;;
16792;SDS011;8513;42.662;23.350;2022-11-23T15:43:00;6.43;;;3.00;;
16792;SDS011;8513;42.662;23.350;2022-11-23T15:48:20;7.03;;;3.90;;
16792;SDS011;8513;42.662;23.350;2022-11-23T15:50:51;16.13;;;5.07;;
16792;SDS011;8513;42.662;23.350;2022-11-23T15:53:20;10.03;;;4.07;;
16792;SDS011;8513;42.662;23.350;2022-11-23T15:55:53;11.10;;;4.18;;
16792;SDS011;8513;42.662;23.350;2022-11-23T15:58:21;14.23;;;4.30;;
16792;SDS011;8513;42.662;23.350;2022-11-23T16:00:53;9.37;;;4.37;;
16792;SDS011;8513;42.662;23.350;2022-11-23T16:03:34;9.33;;;5.13;;
16792;SDS011;8513;42.662;23.350;2022-11-23T16:08:37;11.18;;;5.88;;
16792;SDS011;8513;42.662;23.350;2022-11-23T16:11:05;12.67;;;5.47;;
16792;SDS011;8513;42.662;23.350;2022-11-23T16:13:50;7.87;;;5.63;;
16792;SDS011;8513;42.662;23.350;2022-11-23T16:16:17;9.00;;;6.10;;
16792;SDS011;8513;42.662;23.350;2022-11-23T16:18:46;12.63;;;6.53;;
16792;SDS011;8513;42.662;23.350;2022-11-23T16:21:16;9.40;;;6.37;;
16792;SDS011;8513;42.662;23.350;2022-11-23T16:23:48;15.93;;;9.43;;
16792;SDS011;8513;42.662;23.350;2022-11-23T16:26:20;16.83;;;9.40;;
16792;SDS011;8513;42.662;23.350;2022-11-23T16:28:54;11.90;;;8.80;;
16792;SDS011;8513;42.662;23.350;2022-11-23T16:31:29;11.67;;;8.97;;
16792;SDS011;8513;42.662;23.350;2022-11-23T16:34:00;9.57;;;7.13;;
16792;SDS011;8513;42.662;23.350;2022-11-23T16:36:25;10.80;;;7.60;;
16792;SDS011;8513;42.662;23.350;2022-11-23T16:38:52;10.27;;;7.33;;
16792;SDS011;8513;42.662;23.350;2022-11-23T16:41:17;11.60;;;8.00;;
16792;SDS011;8513;42.662;23.350;2022-11-23T16:43:43;11.23;;;7.90;;
16792;SDS011;8513;42.662;23.350;2022-11-23T16:46:08;12.13;;;7.87;;
16792;SDS011;8513;42.662;23.350;2022-11-23T16:51:03;12.10;;;7.70;;
16792;SDS011;8513;42.662;23.350;2022-11-23T16:53:28;14.10;;;8.03;;
16792;SDS011;8513;42.662;23.350;2022-11-23T16:55:55;9.87;;;6.90;;
16792;SDS011;8513;42.662;23.350;2022-11-23T16:58:22;10.90;;;6.13;;
16792;SDS011;8513;42.662;23.350;2022-11-23T17:00:49;11.47;;;7.00;;
16792;SDS011;8513;42.662;23.350;2022-11-23T17:03:15;14.50;;;7.10;;
16792;SDS011;8513;42.662;23.350;2022-11-23T17:05:41;11.13;;;6.47;;
16792;SDS011;8513;42.662;23.350;2022-11-23T17:08:07;10.70;;;6.30;;
16792;SDS011;8513;42.662;23.350;2022-11-23T17:10:33;9.97;;;6.40;;
16792;SDS011;8513;42.662;23.350;2022-11-23T17:13:00;9.73;;;6.30;;
16792;SDS011;8513;42.662;23.350;2022-11-23T17:15:26;9.23;;;6.03;;